createdAt,value
2023-01-21T00:01:09.337Z,19.85
2023-01-21T00:03:35.720Z,19.84
2023-01-21T00:06:02.126Z,19.84
2023-01-21T00:08:28.451Z,19.84
2023-01-21T00:10:54.776Z,19.82
2023-01-21T00:13:21.266Z,19.81
2023-01-21T00:15:47.644Z,19.80
2023-01-21T00:18:14.002Z,19.81
2023-01-21T00:20:40.344Z,19.80
2023-01-21T00:23:06.695Z,19.80
2023-01-21T00:25:33.043Z,19.81
2023-01-21T00:28:00.174Z,19.83
2023-01-21T00:30:26.657Z,19.85
2023-01-21T00:32:53.007Z,19.83
2023-01-21T00:35:19.360Z,19.85
2023-01-21T00:37:45.712Z,19.83
2023-01-21T00:40:12.216Z,19.81
2023-01-21T00:42:38.541Z,19.82
2023-01-21T00:45:05.041Z,19.84
2023-01-21T00:47:31.424Z,19.84
2023-01-21T00:49:57.742Z,19.86
2023-01-21T00:52:24.077Z,19.88
2023-01-21T00:54:50.410Z,19.87
2023-01-21T00:57:16.722Z,19.86
2023-01-21T00:59:43.240Z,19.84
2023-01-21T01:02:09.568Z,19.85
2023-01-21T01:04:35.891Z,19.84
2023-01-21T01:07:02.225Z,19.83
2023-01-21T01:09:28.549Z,19.83
2023-01-21T01:11:54.887Z,19.79
2023-01-21T01:14:22.187Z,19.79
2023-01-21T01:16:48.843Z,19.79
2023-01-21T01:19:15.362Z,19.80
2023-01-21T01:21:41.694Z,19.79
2023-01-21T01:24:08.020Z,19.78
2023-01-21T01:26:37.248Z,19.78
2023-01-21T01:29:03.971Z,19.80
2023-01-21T01:31:30.363Z,19.82
2023-01-21T01:33:56.789Z,19.82
2023-01-21T01:36:25.844Z,19.82
2023-01-21T01:38:52.417Z,19.81
2023-01-21T01:41:29.380Z,19.82
2023-01-21T01:43:57.343Z,19.80
2023-01-21T01:46:24.338Z,19.79
2023-01-21T01:48:52.508Z,19.79
2023-01-21T01:51:19.217Z,19.77
2023-01-21T01:53:45.606Z,19.76
2023-01-21T01:56:12.019Z,19.77
2023-01-21T01:58:38.334Z,19.76
2023-01-21T02:01:04.706Z,19.77
2023-01-21T02:03:44.696Z,19.79
2023-01-21T02:06:12.067Z,19.78
2023-01-21T02:08:38.386Z,19.79
2023-01-21T02:11:11.277Z,19.79
2023-01-21T02:13:37.610Z,19.79
2023-01-21T02:16:08.815Z,19.78
2023-01-21T02:18:38.598Z,19.77
2023-01-21T02:21:18.338Z,19.76
2023-01-21T02:24:02.745Z,19.77
2023-01-21T02:26:34.412Z,19.76
2023-01-21T02:29:05.670Z,19.76
2023-01-21T02:31:50.695Z,19.76
2023-01-21T02:34:35.509Z,19.76
2023-01-21T02:37:04.567Z,19.75
2023-01-21T02:39:34.998Z,19.76
2023-01-21T02:42:04.267Z,19.75
2023-01-21T02:44:40.487Z,19.76
2023-01-21T02:47:10.623Z,19.77
2023-01-21T02:49:40.473Z,19.76
2023-01-21T02:56:05.313Z,19.75
2023-01-21T02:58:32.618Z,19.73
2023-01-21T03:01:17.767Z,19.75
2023-01-21T03:03:56.046Z,19.73
2023-01-21T03:06:41.376Z,19.73
2023-01-21T03:09:07.650Z,19.73
2023-01-21T03:11:33.988Z,19.72
2023-01-21T03:14:19.881Z,19.74
2023-01-21T03:16:59.134Z,19.74
2023-01-21T03:42:58.723Z,19.69
2023-01-21T03:45:31.375Z,19.70
2023-01-21T03:47:58.718Z,19.71
2023-01-21T03:50:31.335Z,19.73
2023-01-21T03:52:57.667Z,19.73
2023-01-21T03:55:24.025Z,19.61
2023-01-21T03:57:50.415Z,19.55
2023-01-21T04:00:17.272Z,19.61
2023-01-21T04:02:43.855Z,19.69
2023-01-21T04:05:10.229Z,19.75
2023-01-21T04:07:36.594Z,19.76
2023-01-21T04:10:02.926Z,19.79
2023-01-21T04:12:29.317Z,19.80
2023-01-21T04:14:55.631Z,19.82
2023-01-21T04:17:21.975Z,19.82
2023-01-21T04:19:48.346Z,19.82
2023-01-21T04:22:14.735Z,19.81
2023-01-21T04:24:41.060Z,19.82
2023-01-21T04:27:07.669Z,19.81
2023-01-21T04:29:34.015Z,19.83
2023-01-21T04:32:00.416Z,19.81
2023-01-21T04:34:26.754Z,19.87
2023-01-21T04:36:53.061Z,19.90
2023-01-21T04:39:19.394Z,19.91
2023-01-21T04:41:45.707Z,19.83
2023-01-21T04:44:12.040Z,19.92
2023-01-21T04:46:41.452Z,19.44
2023-01-21T04:49:07.805Z,19.47
2023-01-21T04:51:34.143Z,19.61
2023-01-21T04:54:00.487Z,19.70
2023-01-21T04:56:26.814Z,19.77
2023-01-21T04:58:53.125Z,19.77
2023-01-21T05:01:19.437Z,19.81
2023-01-21T05:03:45.781Z,19.81
2023-01-21T05:06:12.097Z,19.83
2023-01-21T05:08:38.447Z,19.83
2023-01-21T05:11:06.929Z,19.83
2023-01-21T05:13:33.317Z,19.83
2023-01-21T05:16:03.010Z,19.83
2023-01-21T05:18:29.465Z,19.83
2023-01-21T05:20:56.919Z,19.82
2023-01-21T05:23:23.256Z,19.82
2023-01-21T05:25:49.701Z,19.81
2023-01-21T05:28:16.037Z,19.81
2023-01-21T05:30:44.520Z,19.81
2023-01-21T05:33:11.058Z,19.82
2023-01-21T05:35:37.402Z,19.80
2023-01-21T05:38:03.723Z,19.81
2023-01-21T05:40:30.061Z,19.82
2023-01-21T05:42:56.405Z,19.83
2023-01-21T05:45:22.725Z,19.84
2023-01-21T05:47:49.153Z,19.83
2023-01-21T05:50:15.789Z,19.84
2023-01-21T05:52:42.340Z,19.85
2023-01-21T05:55:08.697Z,19.86
2023-01-21T05:57:35.027Z,19.85
2023-01-21T06:00:01.383Z,19.85
2023-01-21T06:02:27.785Z,19.86
2023-01-21T06:04:54.192Z,19.85
2023-01-21T06:07:20.498Z,19.84
2023-01-21T06:09:46.823Z,19.84
2023-01-21T06:12:13.138Z,19.83
2023-01-21T06:14:39.467Z,19.80
2023-01-21T06:17:05.783Z,19.88
2023-01-21T06:19:32.113Z,19.85
2023-01-21T06:21:58.435Z,19.89
2023-01-21T06:24:24.966Z,19.89
2023-01-21T06:26:51.992Z,19.91
2023-01-21T06:29:18.311Z,19.93
2023-01-21T06:31:44.726Z,19.95
2023-01-21T06:34:12.605Z,19.95
2023-01-21T06:36:40.765Z,19.94
2023-01-21T06:39:07.104Z,19.93
2023-01-21T06:41:33.417Z,19.92
2023-01-21T06:43:59.751Z,19.91
2023-01-21T06:46:26.110Z,19.91
2023-01-21T06:48:53.725Z,19.89
2023-01-21T06:51:20.131Z,19.88
2023-01-21T06:53:46.483Z,19.89
2023-01-21T06:56:12.843Z,19.88
2023-01-21T06:58:39.187Z,19.87
2023-01-21T07:01:05.523Z,19.88
2023-01-21T07:03:31.853Z,19.90
2023-01-21T07:05:58.172Z,19.90
2023-01-21T07:08:24.523Z,19.90
2023-01-21T07:10:50.861Z,19.91
2023-01-21T07:13:17.198Z,19.92
2023-01-21T07:15:43.553Z,19.92
2023-01-21T07:18:09.903Z,19.94
2023-01-21T07:20:36.227Z,19.93
2023-01-21T07:23:02.552Z,19.93
2023-01-21T07:25:29.075Z,19.94
2023-01-21T07:27:55.458Z,19.94
2023-01-21T07:30:21.779Z,19.94
2023-01-21T07:32:48.112Z,19.93
2023-01-21T07:35:14.612Z,19.92
2023-01-21T07:37:41.279Z,19.93
2023-01-21T07:40:07.919Z,19.92
2023-01-21T07:42:34.235Z,19.91
2023-01-21T07:45:02.822Z,19.92
2023-01-21T07:47:29.246Z,19.92
2023-01-21T07:49:55.599Z,19.93
2023-01-21T07:52:21.918Z,19.94
2023-01-21T07:54:48.239Z,19.94
2023-01-21T07:57:14.569Z,19.94
2023-01-21T07:59:40.908Z,19.94
2023-01-21T08:02:07.313Z,19.95
2023-01-21T08:04:33.696Z,19.95
2023-01-21T08:07:01.857Z,19.95
2023-01-21T08:09:28.191Z,19.94
2023-01-21T08:11:54.529Z,19.93
2023-01-21T08:14:20.872Z,19.93
2023-01-21T08:16:47.181Z,19.93
2023-01-21T08:19:14.164Z,19.94
2023-01-21T08:21:40.571Z,19.94
2023-01-21T08:24:07.038Z,19.94
2023-01-21T08:26:33.364Z,19.96
2023-01-21T08:29:00.160Z,19.96
2023-01-21T08:31:26.511Z,19.97
2023-01-21T08:33:52.877Z,19.96
2023-01-21T08:36:19.204Z,19.98
2023-01-21T08:38:48.395Z,19.98
2023-01-21T08:41:15.049Z,19.98
2023-01-21T08:43:41.433Z,19.98
2023-01-21T08:46:07.828Z,19.97
2023-01-21T08:48:34.256Z,19.98
2023-01-21T08:51:00.711Z,19.96
2023-01-21T08:53:27.078Z,19.97
2023-01-21T08:55:53.401Z,19.96
2023-01-21T08:58:19.730Z,19.97
2023-01-21T09:00:46.184Z,19.98
2023-01-21T09:03:13.691Z,19.97
2023-01-21T09:05:40.017Z,19.98
2023-01-21T09:08:06.329Z,19.98
2023-01-21T09:10:51.784Z,20.00
2023-01-21T09:13:19.908Z,20.00
2023-01-21T09:15:46.229Z,20.00
2023-01-21T09:18:12.563Z,20.01
2023-01-21T09:20:39.682Z,20.01
2023-01-21T09:23:24.568Z,19.99
2023-01-21T09:25:51.705Z,20.00
2023-01-21T09:28:18.239Z,19.82
2023-01-21T09:30:44.650Z,19.84
2023-01-21T09:33:11.385Z,19.90
2023-01-21T09:35:38.189Z,19.94
2023-01-21T09:38:04.510Z,19.96
2023-01-21T09:40:30.854Z,19.99
2023-01-21T09:42:57.223Z,20.01
2023-01-21T09:45:23.556Z,20.00
2023-01-21T09:47:49.893Z,20.00
2023-01-21T09:50:17.350Z,20.00
2023-01-21T09:52:44.140Z,20.01
2023-01-21T09:55:27.683Z,20.01
2023-01-21T09:57:59.714Z,20.04
2023-01-21T10:00:44.906Z,20.03
2023-01-21T10:03:29.556Z,20.02
2023-01-21T10:06:04.987Z,19.47
2023-01-21T10:08:33.023Z,18.58
2023-01-21T10:11:20.274Z,18.94
2023-01-21T10:13:58.239Z,19.47
2023-01-21T10:16:27.534Z,19.70
2023-01-21T10:18:53.906Z,19.80
2023-01-21T10:21:24.047Z,19.92
2023-01-21T10:23:51.361Z,20.05
2023-01-21T10:26:17.849Z,20.05
2023-01-21T10:28:44.642Z,20.08
2023-01-21T10:31:20.976Z,20.14
2023-01-21T10:33:47.503Z,20.17
2023-01-21T10:36:16.664Z,20.11
2023-01-21T10:38:49.572Z,20.06
2023-01-21T10:41:28.799Z,20.05
2023-01-21T10:44:01.647Z,20.06
2023-01-21T10:46:41.100Z,20.04
2023-01-21T10:49:26.322Z,20.12
2023-01-21T10:51:55.798Z,20.11
2023-01-21T10:54:24.753Z,20.17
2023-01-21T10:56:55.891Z,20.16
2023-01-21T10:59:22.680Z,20.21
2023-01-21T11:01:53.300Z,20.21
2023-01-21T11:04:20.377Z,20.14
2023-01-21T11:06:47.238Z,19.85
2023-01-21T11:09:13.977Z,19.99
2023-01-21T11:11:41.563Z,20.08
2023-01-21T11:14:07.885Z,20.09
2023-01-21T11:16:35.098Z,20.11
2023-01-21T11:19:01.951Z,20.12
2023-01-21T11:21:28.265Z,20.12
2023-01-21T11:23:58.138Z,20.12
2023-01-21T11:26:26.455Z,20.11
2023-01-21T11:29:08.828Z,20.11
2023-01-21T11:31:35.615Z,20.11
2023-01-21T11:34:05.818Z,20.10
2023-01-21T11:36:32.142Z,20.09
2023-01-21T11:38:59.875Z,20.09
2023-01-21T11:41:26.193Z,20.09
2023-01-21T11:43:53.242Z,20.09
2023-01-21T11:46:29.854Z,20.11
2023-01-21T11:49:08.418Z,20.11
2023-01-21T11:51:34.897Z,20.11
2023-01-21T11:54:12.185Z,20.11
2023-01-21T11:56:38.506Z,20.09
2023-01-21T11:59:12.173Z,20.08
2023-01-21T12:01:38.490Z,20.09
2023-01-21T12:04:04.901Z,20.09
2023-01-21T12:06:31.288Z,20.09
2023-01-21T12:08:59.551Z,20.09
2023-01-21T12:11:26.676Z,20.09
2023-01-21T12:14:04.916Z,20.09
2023-01-21T12:16:34.691Z,20.09
2023-01-21T12:19:07.697Z,20.09
2023-01-21T12:21:38.899Z,20.11
2023-01-21T12:24:17.384Z,20.11
2023-01-21T12:26:56.491Z,20.11
2023-01-21T12:29:34.916Z,20.11
2023-01-21T12:32:03.040Z,20.08
2023-01-21T12:34:37.129Z,20.07
2023-01-21T12:37:10.189Z,20.07
2023-01-21T12:39:36.618Z,20.07
2023-01-21T12:42:19.799Z,20.09
2023-01-21T12:44:48.736Z,20.08
2023-01-21T12:47:19.199Z,20.09
2023-01-21T12:49:47.922Z,20.09
2023-01-21T12:52:19.231Z,20.11
2023-01-21T12:54:58.977Z,20.11
2023-01-21T12:57:48.531Z,20.09
2023-01-21T13:00:14.946Z,20.11
2023-01-21T13:02:48.496Z,20.11
2023-01-21T13:05:47.418Z,20.08
2023-01-21T13:08:13.719Z,20.08
2023-01-21T13:10:40.876Z,20.06
2023-01-21T13:13:25.894Z,20.06
2023-01-21T13:15:56.501Z,20.08
2023-01-21T13:18:23.622Z,20.08
2023-01-21T13:20:51.550Z,20.09
2023-01-21T13:23:29.803Z,20.08
2023-01-21T13:26:14.640Z,20.07
2023-01-21T13:28:55.590Z,20.09
2023-01-21T13:31:25.599Z,20.08
2023-01-21T13:34:01.533Z,20.07
2023-01-21T13:36:33.767Z,20.07
2023-01-21T13:39:02.597Z,20.05
2023-01-21T13:41:31.426Z,20.06
2023-01-21T13:44:13.049Z,20.05
2023-01-21T13:46:48.421Z,20.04
2023-01-21T13:49:17.646Z,20.05
2023-01-21T13:51:56.476Z,20.06
2023-01-21T13:54:29.057Z,20.06
2023-01-21T13:56:55.326Z,20.06
2023-01-21T13:59:23.535Z,20.07
2023-01-21T14:02:10.134Z,20.07
2023-01-21T14:04:48.307Z,20.07
2023-01-21T14:07:25.408Z,20.05
2023-01-21T14:10:06.337Z,20.04
2023-01-21T14:12:51.452Z,20.04
2023-01-21T14:15:20.011Z,20.05
2023-01-21T14:17:50.364Z,20.05
2023-01-21T14:20:37.763Z,20.05
2023-01-21T14:23:03.994Z,20.05
2023-01-21T14:25:49.821Z,20.06
2023-01-21T14:28:32.321Z,20.07
2023-01-21T14:31:12.514Z,20.06
2023-01-21T14:33:44.150Z,20.06
2023-01-21T14:36:17.990Z,20.06
2023-01-21T14:38:59.279Z,20.06
2023-01-21T14:41:25.601Z,20.04
2023-01-21T14:43:52.114Z,20.04
2023-01-21T14:46:25.721Z,20.04
2023-01-21T14:49:08.223Z,20.03
2023-01-21T14:51:52.751Z,20.04
2023-01-21T14:54:20.581Z,20.04
2023-01-21T14:56:53.294Z,20.05
2023-01-21T14:59:33.550Z,20.05
2023-01-21T15:02:20.282Z,20.05
2023-01-21T15:04:54.368Z,20.04
2023-01-21T15:07:21.664Z,20.05
2023-01-21T15:09:50.049Z,20.03
2023-01-21T15:12:18.604Z,20.04
2023-01-21T15:14:45.955Z,20.02
2023-01-21T15:17:31.000Z,20.01
2023-01-21T15:19:57.863Z,20.01
2023-01-21T15:22:40.702Z,20.01
2023-01-21T15:25:19.987Z,20.01
2023-01-21T15:28:05.391Z,20.00
2023-01-21T15:30:35.210Z,20.02
2023-01-21T15:33:02.052Z,20.02
2023-01-21T15:35:33.186Z,20.03
2023-01-21T15:38:20.442Z,20.03
2023-01-21T15:40:48.241Z,20.01
2023-01-21T15:43:30.525Z,20.01
2023-01-21T15:46:15.648Z,19.99
2023-01-21T15:48:44.631Z,19.98
2023-01-21T15:51:24.213Z,19.99
2023-01-21T15:53:53.459Z,19.99
2023-01-21T15:56:22.999Z,20.00
2023-01-21T15:59:07.951Z,20.00
2023-01-21T16:01:34.732Z,19.75
2023-01-21T16:04:04.063Z,19.92
2023-01-21T16:06:33.384Z,20.15
2023-01-21T16:09:04.826Z,20.23
2023-01-21T16:11:49.858Z,20.34
2023-01-21T16:14:23.015Z,20.36
2023-01-21T16:16:57.782Z,20.39
2023-01-21T16:19:25.439Z,20.40
2023-01-21T16:21:53.081Z,20.41
2023-01-21T16:24:20.743Z,20.57
2023-01-21T16:26:47.071Z,20.63
2023-01-21T16:29:13.888Z,20.61
2023-01-21T16:31:47.031Z,20.62
2023-01-21T16:34:13.508Z,20.59
2023-01-21T16:36:40.099Z,20.59
2023-01-21T16:39:06.813Z,20.66
2023-01-21T16:41:33.157Z,20.57
2023-01-21T16:44:02.989Z,20.32
2023-01-21T16:46:34.533Z,20.47
2023-01-21T16:49:00.960Z,20.67
2023-01-21T16:51:34.035Z,20.75
2023-01-21T16:54:20.473Z,20.86
2023-01-21T16:56:47.761Z,20.79
2023-01-21T16:59:18.040Z,20.62
2023-01-21T17:01:44.426Z,20.55
2023-01-21T17:04:10.856Z,20.53
2023-01-21T17:06:37.225Z,20.53
2023-01-21T17:09:05.646Z,20.54
2023-01-21T17:11:36.907Z,20.58
2023-01-21T17:14:07.483Z,20.58
2023-01-21T17:16:35.226Z,20.58
2023-01-21T17:19:02.961Z,20.58
2023-01-21T17:21:29.212Z,20.62
2023-01-21T17:23:56.586Z,20.62
2023-01-21T17:26:22.861Z,20.63
2023-01-21T17:28:59.660Z,20.63
2023-01-21T17:31:26.185Z,20.61
2023-01-21T17:34:10.628Z,20.62
2023-01-21T17:36:37.676Z,20.63
2023-01-21T17:39:04.214Z,20.61
2023-01-21T17:41:34.470Z,20.60
2023-01-21T17:44:01.402Z,20.61
2023-01-21T17:46:27.805Z,20.61
2023-01-21T17:48:55.104Z,20.61
2023-01-21T17:51:26.012Z,20.61
2023-01-21T17:53:52.980Z,20.62
2023-01-21T17:56:34.523Z,20.61
2023-01-21T17:59:02.639Z,20.60
2023-01-21T18:01:29.182Z,20.59
2023-01-21T18:03:55.740Z,20.64
2023-01-21T18:09:14.358Z,20.84
2023-01-21T18:11:40.677Z,20.81
2023-01-21T18:14:08.465Z,20.83
2023-01-21T18:16:34.806Z,20.85
2023-01-21T18:19:01.167Z,20.88
2023-01-21T18:21:27.502Z,20.88
2023-01-21T18:23:54.171Z,20.77
2023-01-21T18:26:25.280Z,20.69
2023-01-21T18:28:51.624Z,20.65
2023-01-21T18:31:18.041Z,20.63
2023-01-21T18:33:44.479Z,20.61
2023-01-21T18:36:11.202Z,20.61
2023-01-21T18:38:37.962Z,20.58
2023-01-21T18:41:05.621Z,20.58
2023-01-21T18:43:32.036Z,20.55
2023-01-21T18:45:59.345Z,20.55
2023-01-21T18:48:28.778Z,20.51
2023-01-21T18:50:55.161Z,20.51
2023-01-21T18:53:21.568Z,20.50
2023-01-21T18:55:48.583Z,20.51
2023-01-21T18:58:14.981Z,20.51
2023-01-21T19:00:41.340Z,20.51
2023-01-21T19:03:07.758Z,20.53
2023-01-21T19:05:34.788Z,20.51
2023-01-21T19:08:01.333Z,20.50
2023-01-21T19:10:27.655Z,20.50
2023-01-21T19:12:53.981Z,20.50
2023-01-21T19:15:22.027Z,20.48
2023-01-21T19:17:48.365Z,20.47
2023-01-21T19:20:21.876Z,20.47
2023-01-21T19:22:48.270Z,20.47
2023-01-21T19:25:14.620Z,20.46
2023-01-21T19:27:41.912Z,20.46
2023-01-21T19:30:38.478Z,20.46
2023-01-21T19:33:04.823Z,20.46
2023-01-21T19:35:32.117Z,20.46
2023-01-21T19:37:58.472Z,20.47
2023-01-21T19:40:25.832Z,20.47
2023-01-21T19:42:52.221Z,20.46
2023-01-21T19:45:18.546Z,20.47
2023-01-21T19:47:45.475Z,20.46
2023-01-21T19:50:13.303Z,20.45
2023-01-21T19:52:39.655Z,20.43
2023-01-21T19:55:06.549Z,20.43
2023-01-21T19:57:33.103Z,20.41
2023-01-21T19:59:59.668Z,20.41
2023-01-21T20:02:26.063Z,20.41
2023-01-21T20:04:52.384Z,20.41
2023-01-21T20:07:19.034Z,20.40
2023-01-21T20:09:45.625Z,20.41
2023-01-21T20:12:12.779Z,20.42
2023-01-21T20:14:39.103Z,20.42
2023-01-21T20:17:05.444Z,20.41
2023-01-21T20:19:31.772Z,20.41
2023-01-21T20:22:02.456Z,20.39
2023-01-21T20:24:30.372Z,20.39
2023-01-21T20:26:57.156Z,20.38
2023-01-21T20:29:23.503Z,20.37
2023-01-21T20:31:51.798Z,20.39
2023-01-21T20:34:18.217Z,20.39
2023-01-21T20:36:45.479Z,20.38
2023-01-21T20:39:13.086Z,20.38
2023-01-21T20:41:40.833Z,20.39
2023-01-21T20:44:07.162Z,20.38
2023-01-21T20:46:33.515Z,20.39
2023-01-21T20:48:59.865Z,20.38
2023-01-21T20:51:26.187Z,20.39
2023-01-21T20:53:52.511Z,20.37
2023-01-21T20:56:23.094Z,20.37
2023-01-21T20:58:49.416Z,20.36
2023-01-21T21:01:16.121Z,20.35
2023-01-21T21:03:42.460Z,20.34
2023-01-21T21:06:15.095Z,20.35
2023-01-21T21:08:41.429Z,20.35
2023-01-21T21:11:07.944Z,20.36
2023-01-21T21:13:34.278Z,20.37
2023-01-21T21:16:00.594Z,20.35
2023-01-21T21:18:26.931Z,20.36
2023-01-21T21:20:53.247Z,20.38
2023-01-21T21:23:19.583Z,20.38
2023-01-21T21:25:46.247Z,20.36
2023-01-21T21:28:12.995Z,20.35
2023-01-21T21:30:39.358Z,20.35
2023-01-21T21:33:07.566Z,20.35
2023-01-21T21:35:36.968Z,20.34
2023-01-21T21:38:03.781Z,20.33
2023-01-21T21:40:30.201Z,20.32
2023-01-21T21:43:15.448Z,20.33
2023-01-21T21:46:02.046Z,20.31
2023-01-21T21:48:54.450Z,20.30
2023-01-21T21:51:22.453Z,20.29
2023-01-21T21:53:48.997Z,20.29
2023-01-21T21:56:24.060Z,20.28
2023-01-21T21:58:50.386Z,20.27
2023-01-21T22:01:20.471Z,20.27
2023-01-21T22:03:46.968Z,20.26
2023-01-21T22:06:13.284Z,20.25
2023-01-21T22:08:40.412Z,20.26
2023-01-21T22:11:07.799Z,20.27
2023-01-21T22:13:34.853Z,20.27
2023-01-21T22:16:01.164Z,20.26
2023-01-21T22:18:27.791Z,20.27
2023-01-21T22:21:06.133Z,20.26
2023-01-21T22:23:33.117Z,20.26
2023-01-21T22:26:00.647Z,20.25
2023-01-21T22:28:26.974Z,20.24
2023-01-21T22:30:53.528Z,20.23
2023-01-21T22:33:22.131Z,20.23
2023-01-21T22:35:48.528Z,20.22
2023-01-21T22:38:14.878Z,20.21
2023-01-21T22:40:41.213Z,20.22
2023-01-21T22:43:07.570Z,20.21
2023-01-21T22:45:33.961Z,20.21
2023-01-21T22:48:01.188Z,20.22
2023-01-21T22:50:27.638Z,20.22
2023-01-21T22:52:54.011Z,20.22
2023-01-21T22:55:20.342Z,20.22
2023-01-21T22:57:46.696Z,20.22
2023-01-21T23:00:16.099Z,20.22
2023-01-21T23:02:42.463Z,20.21
2023-01-21T23:05:08.869Z,20.21
2023-01-21T23:07:35.238Z,20.21
2023-01-21T23:10:01.561Z,20.20
2023-01-21T23:12:28.712Z,20.19
2023-01-21T23:14:55.082Z,20.20
2023-01-21T23:17:21.421Z,20.20
2023-01-21T23:19:47.947Z,20.20
2023-01-21T23:22:14.267Z,20.18
2023-01-21T23:24:40.593Z,20.17
2023-01-21T23:27:06.950Z,20.17
2023-01-21T23:29:33.273Z,20.18
2023-01-21T23:31:59.749Z,20.17
2023-01-21T23:34:26.152Z,20.18
2023-01-21T23:36:52.499Z,20.18
2023-01-21T23:39:18.903Z,20.18
2023-01-21T23:41:45.239Z,20.17
2023-01-21T23:44:11.606Z,20.17
2023-01-21T23:46:38.843Z,20.16
2023-01-21T23:49:05.162Z,20.15
2023-01-21T23:51:31.500Z,20.15
2023-01-21T23:53:57.910Z,20.14
2023-01-21T23:56:24.456Z,20.14
2023-01-21T23:58:50.785Z,20.14
